createdAt,value
2022-11-14T00:01:07.938Z,86856.31
2022-11-14T00:03:53.270Z,86825.84
2022-11-14T00:06:38.706Z,86828.56
2022-11-14T00:09:28.394Z,86845.38
2022-11-14T00:12:13.795Z,86850.94
2022-11-14T00:14:59.175Z,86835.38
2022-11-14T00:17:44.718Z,86842.41
2022-11-14T00:20:30.240Z,86825.50
2022-11-14T00:23:15.996Z,86816.63
2022-11-14T00:26:01.389Z,86815.78
2022-11-14T00:28:46.762Z,86826.84
2022-11-14T00:31:32.400Z,86798.38
2022-11-14T00:34:18.636Z,86799.03
2022-11-14T00:37:04.096Z,86821.41
2022-11-14T00:39:49.366Z,86789.41
2022-11-14T00:42:34.988Z,86815.69
2022-11-14T00:45:20.664Z,86785.66
2022-11-14T00:48:06.165Z,86810.81
2022-11-14T00:50:51.864Z,86788.53
2022-11-14T00:53:37.315Z,86799.69
2022-11-14T00:56:22.922Z,86787.34
2022-11-14T00:59:08.329Z,86805.28
2022-11-14T01:01:57.688Z,86795.00
2022-11-14T01:04:43.536Z,86733.63
2022-11-14T01:07:29.176Z,86780.97
2022-11-14T01:10:15.102Z,86762.09
2022-11-14T01:13:00.770Z,86785.03
2022-11-14T01:15:48.756Z,86755.91
2022-11-14T01:18:35.346Z,86798.94
2022-11-14T01:21:20.853Z,86785.91
2022-11-14T01:24:06.823Z,86773.28
2022-11-14T01:26:56.141Z,86754.44
2022-11-14T01:29:41.716Z,86729.38
2022-11-14T01:32:27.842Z,86774.00
2022-11-14T01:35:13.605Z,86779.50
2022-11-14T01:37:59.176Z,86748.59
2022-11-14T01:40:45.660Z,86786.19
2022-11-14T01:43:33.981Z,86755.66
2022-11-14T01:46:30.715Z,86779.63
2022-11-14T01:49:19.013Z,86767.38
2022-11-14T01:52:14.026Z,86761.13
2022-11-14T01:55:01.215Z,86762.16
2022-11-14T01:57:48.367Z,86735.56
2022-11-14T02:00:33.878Z,86714.69
2022-11-14T02:03:20.081Z,86752.41
2022-11-14T02:06:07.585Z,86756.75
2022-11-14T02:08:54.064Z,86731.75
2022-11-14T02:11:45.322Z,86746.47
2022-11-14T02:14:31.546Z,86751.28
2022-11-14T02:17:34.487Z,86720.63
2022-11-14T02:20:28.752Z,86740.03
2022-11-14T02:23:15.002Z,86737.28
2022-11-14T02:26:00.549Z,86719.69
2022-11-14T02:28:46.499Z,86738.63
2022-11-14T02:31:32.106Z,86737.16
2022-11-14T02:34:20.140Z,86736.00
2022-11-14T02:37:06.436Z,86695.94
2022-11-14T02:39:51.823Z,86716.50
2022-11-14T02:42:37.719Z,86685.22
2022-11-14T02:45:23.193Z,86725.50
2022-11-14T02:48:08.970Z,86735.31
2022-11-14T02:50:54.818Z,86732.50
2022-11-14T02:53:40.043Z,86735.94
2022-11-14T02:56:25.558Z,86704.06
2022-11-14T02:59:10.980Z,86730.03
2022-11-14T03:01:56.487Z,86704.28
2022-11-14T03:04:42.233Z,86732.72
2022-11-14T03:07:27.986Z,86656.84
2022-11-14T03:10:14.138Z,86670.13
2022-11-14T03:12:59.710Z,86723.03
2022-11-14T03:15:45.952Z,86693.66
2022-11-14T03:18:31.695Z,86731.25
2022-11-14T03:21:20.904Z,86690.28
2022-11-14T03:24:06.866Z,86706.50
2022-11-14T03:26:52.825Z,86682.69
2022-11-14T03:29:38.500Z,86693.22
2022-11-14T03:32:23.854Z,86705.09
2022-11-14T03:35:10.167Z,86719.13
2022-11-14T03:37:56.747Z,86677.69
2022-11-14T03:40:42.870Z,86725.66
2022-11-14T03:43:32.354Z,86705.06
2022-11-14T03:46:17.659Z,86687.59
2022-11-14T03:49:03.192Z,86707.44
2022-11-14T03:51:48.661Z,86678.28
2022-11-14T03:54:34.008Z,86671.88
2022-11-14T03:57:19.491Z,86700.66
2022-11-14T04:00:05.644Z,86707.06
2022-11-14T04:02:54.546Z,86689.47
2022-11-14T04:05:39.799Z,86704.06
2022-11-14T04:08:25.377Z,86657.31
2022-11-14T04:11:10.835Z,86707.44
2022-11-14T04:13:56.275Z,86671.00
2022-11-14T04:16:41.545Z,86678.00
2022-11-14T04:19:27.061Z,86687.03
2022-11-14T04:22:12.726Z,86674.44
2022-11-14T04:24:58.210Z,86710.97
2022-11-14T04:27:44.355Z,86689.88
2022-11-14T04:30:34.586Z,86706.97
2022-11-14T04:33:20.678Z,86695.44
2022-11-14T04:36:06.345Z,86710.06
2022-11-14T04:38:51.403Z,86694.75
2022-11-14T04:41:36.793Z,86702.31
2022-11-14T04:44:22.069Z,86701.22
2022-11-14T04:47:07.614Z,86708.09
2022-11-14T04:49:52.984Z,86696.81
2022-11-14T04:52:38.680Z,86674.53
2022-11-14T04:55:24.459Z,86714.97
2022-11-14T04:58:16.098Z,86623.59
2022-11-14T05:01:10.804Z,86570.19
2022-11-14T05:03:56.925Z,86722.41
2022-11-14T05:06:42.595Z,86721.34
2022-11-14T05:09:28.792Z,86682.47
2022-11-14T05:12:14.493Z,86710.97
2022-11-14T05:15:00.295Z,86701.81
2022-11-14T05:17:45.969Z,86672.50
2022-11-14T05:20:31.564Z,86700.41
2022-11-14T05:23:20.704Z,86702.38
2022-11-14T05:26:10.987Z,86697.53
2022-11-14T05:28:56.426Z,86684.88
2022-11-14T05:31:41.742Z,86674.97
2022-11-14T05:34:27.498Z,86703.91
2022-11-14T05:37:12.736Z,86687.81
2022-11-14T05:39:58.344Z,86674.63
2022-11-14T05:42:43.710Z,86697.66
2022-11-14T05:45:29.193Z,86677.50
2022-11-14T05:48:14.676Z,86710.22
2022-11-14T05:51:02.184Z,86712.19
2022-11-14T05:53:47.726Z,86698.88
2022-11-14T05:56:33.275Z,86701.88
2022-11-14T05:59:18.695Z,86680.94
2022-11-14T06:02:04.236Z,86705.91
2022-11-14T06:04:49.533Z,86688.38
2022-11-14T06:07:35.145Z,86686.53
2022-11-14T06:10:20.832Z,86706.69
2022-11-14T06:13:06.329Z,86725.72
2022-11-14T06:15:52.045Z,86725.28
2022-11-14T06:18:38.104Z,86697.34
2022-11-14T06:21:25.294Z,86720.66
2022-11-14T06:24:10.708Z,86731.28
2022-11-14T06:26:56.092Z,86700.91
2022-11-14T06:29:41.865Z,86731.69
2022-11-14T06:32:27.209Z,86715.41
2022-11-14T06:35:12.752Z,86735.25
2022-11-14T06:38:00.128Z,86722.72
2022-11-14T06:40:45.259Z,86709.78
2022-11-14T06:43:33.360Z,86696.00
2022-11-14T06:46:21.108Z,86704.56
2022-11-14T06:49:06.623Z,86720.88
2022-11-14T06:51:52.352Z,86714.69
2022-11-14T06:54:37.899Z,86679.66
2022-11-14T06:57:23.398Z,86720.13
2022-11-14T07:00:09.589Z,86714.16
2022-11-14T07:02:55.300Z,86701.69
2022-11-14T07:05:40.645Z,86699.16
2022-11-14T07:08:26.329Z,86709.19
2022-11-14T07:11:23.050Z,86688.44
2022-11-14T07:14:09.441Z,86717.78
2022-11-14T07:16:55.010Z,86715.13
2022-11-14T07:19:40.498Z,86685.38
2022-11-14T07:22:25.878Z,86710.06
2022-11-14T07:25:11.237Z,86714.38
2022-11-14T07:27:58.199Z,86714.66
2022-11-14T07:30:43.733Z,86710.75
2022-11-14T07:33:30.293Z,86694.44
2022-11-14T07:36:16.780Z,86690.38
2022-11-14T07:39:02.523Z,86708.75
2022-11-14T07:41:47.892Z,86703.47
2022-11-14T07:44:33.318Z,86693.31
2022-11-14T07:47:19.092Z,86703.28
2022-11-14T07:50:04.996Z,86704.97
2022-11-14T07:52:55.484Z,86661.41
2022-11-14T07:55:41.305Z,86700.47
2022-11-14T07:58:27.012Z,86703.53
2022-11-14T08:01:13.774Z,86703.72
2022-11-14T08:03:59.479Z,86705.94
2022-11-14T08:06:45.051Z,86698.53
2022-11-14T08:09:30.505Z,86698.69
2022-11-14T08:12:15.854Z,86696.06
2022-11-14T08:15:01.347Z,86660.09
2022-11-14T08:17:46.719Z,86681.78
2022-11-14T08:20:32.338Z,86693.72
2022-11-14T08:23:17.852Z,86661.94
2022-11-14T08:26:03.433Z,86698.03
2022-11-14T08:28:53.860Z,86675.94
2022-11-14T08:31:39.369Z,86680.16
2022-11-14T08:34:25.633Z,86692.69
2022-11-14T08:37:11.127Z,86689.28
2022-11-14T08:39:56.553Z,86696.91
2022-11-14T08:42:42.201Z,86638.75
2022-11-14T08:45:27.614Z,86680.38
2022-11-14T08:48:12.739Z,86672.09
2022-11-14T08:50:58.676Z,86663.09
2022-11-14T08:53:43.959Z,86646.50
2022-11-14T08:56:29.829Z,86681.88
2022-11-14T08:59:14.919Z,86674.25
2022-11-14T09:02:00.731Z,86647.25
2022-11-14T09:04:46.464Z,86654.19
2022-11-14T09:07:32.323Z,86656.25
2022-11-14T09:10:18.123Z,86655.56
2022-11-14T09:13:03.791Z,86658.28
2022-11-14T09:15:49.334Z,86659.66
2022-11-14T09:18:34.747Z,86651.31
2022-11-14T09:21:20.193Z,86642.31
2022-11-14T09:24:06.086Z,86649.19
2022-11-14T09:26:56.684Z,86636.00
2022-11-14T09:29:42.464Z,86647.69
2022-11-14T09:32:28.043Z,86643.50
2022-11-14T09:35:13.521Z,86633.75
2022-11-14T09:38:03.673Z,86621.88
2022-11-14T09:41:02.606Z,86643.25
2022-11-14T09:44:24.726Z,86605.13
2022-11-14T09:47:20.775Z,86609.16
2022-11-14T09:50:30.705Z,86596.66
2022-11-14T09:53:34.443Z,86619.94
2022-11-14T09:56:25.278Z,86626.78
2022-11-14T09:59:12.427Z,86610.00
2022-11-14T10:02:14.205Z,86618.94
2022-11-14T10:05:02.872Z,86611.19
2022-11-14T10:08:06.184Z,86615.19
2022-11-14T10:11:00.231Z,86584.69
2022-11-14T10:13:54.912Z,86606.59
2022-11-14T10:16:43.264Z,86609.25
2022-11-14T10:19:42.852Z,86604.28
2022-11-14T10:22:43.777Z,86600.63
2022-11-14T10:25:44.169Z,86601.94
2022-11-14T10:28:39.593Z,86589.31
2022-11-14T10:31:46.441Z,86595.41
2022-11-14T10:34:42.506Z,86589.03
2022-11-14T10:37:37.889Z,86588.19
2022-11-14T10:40:28.179Z,86573.56
2022-11-14T10:43:28.537Z,86563.72
2022-11-14T10:46:28.640Z,86584.25
2022-11-14T10:49:22.563Z,86549.63
2022-11-14T10:52:15.024Z,86575.72
2022-11-14T10:55:07.322Z,86574.16
2022-11-14T10:57:53.149Z,86569.88
2022-11-14T11:00:38.776Z,86540.06
2022-11-14T11:03:42.017Z,86557.13
2022-11-14T11:06:29.304Z,86558.38
2022-11-14T11:09:45.422Z,86547.06
2022-11-14T11:12:37.462Z,86560.91
2022-11-14T11:15:31.845Z,86551.13
2022-11-14T11:18:31.524Z,86544.00
2022-11-14T11:21:22.331Z,86521.97
2022-11-14T11:24:09.320Z,86545.22
2022-11-14T11:27:20.470Z,86537.50
2022-11-14T11:30:08.467Z,86536.75
2022-11-14T11:32:54.180Z,86521.56
2022-11-14T11:35:41.704Z,86510.31
2022-11-14T11:38:30.161Z,86530.88
2022-11-14T11:42:07.285Z,86530.03
2022-11-14T11:44:43.681Z,86501.75
2022-11-14T11:47:33.449Z,86530.63
2022-11-14T11:50:21.421Z,86534.00
2022-11-14T11:53:28.265Z,86524.09
2022-11-14T11:56:19.661Z,86515.38
2022-11-14T11:59:41.149Z,86524.75
2022-11-14T12:02:27.674Z,86526.09
2022-11-14T12:05:23.786Z,86490.16
2022-11-14T12:08:21.085Z,86514.78
2022-11-14T12:11:16.131Z,86497.69
2022-11-14T12:14:37.105Z,86521.59
2022-11-14T12:17:48.630Z,86522.97
2022-11-14T12:20:46.155Z,86526.38
2022-11-14T12:23:52.565Z,86522.25
2022-11-14T12:27:06.497Z,86518.00
2022-11-14T12:30:04.922Z,86485.00
2022-11-14T12:33:02.816Z,86521.38
2022-11-14T12:35:52.582Z,86503.38
2022-11-14T12:38:54.404Z,86514.81
2022-11-14T12:41:41.362Z,86499.00
2022-11-14T12:44:29.699Z,86516.84
2022-11-14T12:47:18.307Z,86475.53
2022-11-14T12:50:06.492Z,86507.13
2022-11-14T12:52:54.275Z,86507.91
2022-11-14T12:55:46.100Z,86512.63
2022-11-14T12:58:59.024Z,86517.56
2022-11-14T13:01:56.400Z,86512.78
2022-11-14T13:05:14.939Z,86511.44
2022-11-14T13:08:00.170Z,86503.88
2022-11-14T13:10:45.489Z,86516.44
2022-11-14T13:13:49.994Z,86466.31
2022-11-14T13:16:54.142Z,86511.84
2022-11-14T13:20:05.651Z,86503.13
2022-11-14T13:22:51.574Z,86478.22
2022-11-14T13:25:37.045Z,86513.06
2022-11-14T13:28:37.780Z,86514.63
2022-11-14T13:31:25.456Z,86499.63
2022-11-14T13:34:29.283Z,86513.69
2022-11-14T13:37:17.636Z,86510.59
2022-11-14T13:40:17.165Z,86499.94
2022-11-14T13:43:41.353Z,86510.84
2022-11-14T13:46:42.272Z,86503.16
2022-11-14T13:50:01.529Z,86502.59
2022-11-14T13:52:48.906Z,86508.47
2022-11-14T13:55:54.702Z,86512.47
2022-11-14T13:59:04.587Z,86509.72
2022-11-14T14:02:22.297Z,86518.47
2022-11-14T14:05:32.541Z,86513.19
2022-11-14T14:08:36.956Z,86509.25
2022-11-14T14:11:47.416Z,86512.81
2022-11-14T14:15:11.511Z,86467.97
2022-11-14T14:18:17.936Z,86507.44
2022-11-14T14:21:13.800Z,86511.00
2022-11-14T14:24:20.688Z,86505.47
2022-11-14T14:27:17.459Z,86504.25
2022-11-14T14:30:08.291Z,86499.31
2022-11-14T14:33:12.577Z,86502.81
2022-11-14T14:35:57.962Z,86510.53
2022-11-14T14:38:43.844Z,86489.81
2022-11-14T14:41:32.608Z,86475.38
2022-11-14T14:44:33.800Z,86496.81
2022-11-14T14:47:43.073Z,86494.09
2022-11-14T14:50:38.605Z,86478.25
2022-11-14T14:53:33.440Z,86501.78
2022-11-14T14:56:26.869Z,86510.09
2022-11-14T14:59:20.035Z,86465.16
2022-11-14T15:02:15.612Z,86494.25
2022-11-14T15:05:01.996Z,86496.28
2022-11-14T15:07:49.627Z,86493.56
2022-11-14T15:10:35.325Z,86467.34
2022-11-14T15:13:21.457Z,86502.59
2022-11-14T15:16:08.165Z,86468.06
2022-11-14T15:18:56.291Z,86488.84
2022-11-14T15:21:43.463Z,86435.59
2022-11-14T15:24:29.251Z,86486.03
2022-11-14T15:27:20.001Z,86492.28
2022-11-14T15:30:08.401Z,86501.97
2022-11-14T15:32:57.165Z,86495.75
2022-11-14T15:35:43.086Z,86492.28
2022-11-14T15:38:44.858Z,86469.50
2022-11-14T15:41:34.031Z,86472.94
2022-11-14T15:44:33.732Z,86488.13
2022-11-14T15:47:26.035Z,86509.59
2022-11-14T15:50:11.573Z,86500.56
2022-11-14T15:53:06.771Z,86504.72
2022-11-14T15:55:52.311Z,86481.22
2022-11-14T15:58:37.895Z,86490.22
2022-11-14T16:01:24.398Z,86511.63
2022-11-14T16:04:24.971Z,86501.94
2022-11-14T16:07:15.693Z,86517.13
2022-11-14T16:10:01.094Z,86450.00
2022-11-14T16:12:51.973Z,86514.34
2022-11-14T16:15:38.238Z,86512.94
2022-11-14T16:18:23.860Z,86506.69
2022-11-14T16:21:16.694Z,86514.25
2022-11-14T16:24:02.285Z,86504.53
2022-11-14T16:26:48.626Z,86498.94
2022-11-14T16:29:33.832Z,86495.44
2022-11-14T16:32:19.452Z,86516.84
2022-11-14T16:35:07.906Z,86507.16
2022-11-14T16:37:56.717Z,86500.91
2022-11-14T16:40:44.936Z,86516.84
2022-11-14T16:43:30.908Z,86502.22
2022-11-14T16:46:16.549Z,86520.22
2022-11-14T16:49:02.701Z,86508.41
2022-11-14T16:51:50.616Z,86522.19
2022-11-14T16:54:36.665Z,86494.50
2022-11-14T16:57:22.518Z,86517.38
2022-11-14T17:00:13.448Z,86501.31
2022-11-14T17:02:58.922Z,86502.66
2022-11-14T17:05:49.194Z,86514.41
2022-11-14T17:08:34.605Z,86520.53
2022-11-14T17:11:20.140Z,86498.34
2022-11-14T17:14:05.951Z,86505.28
2022-11-14T17:16:51.540Z,86517.66
2022-11-14T17:19:39.037Z,86502.38
2022-11-14T17:22:24.788Z,86514.13
2022-11-14T17:25:10.756Z,86513.38
2022-11-14T17:27:56.560Z,86506.41
2022-11-14T17:30:43.184Z,86518.84
2022-11-14T17:33:28.990Z,86481.50
2022-11-14T17:36:14.591Z,86506.34
2022-11-14T17:39:00.169Z,86506.28
2022-11-14T17:41:46.262Z,86474.41
2022-11-14T17:44:31.838Z,86511.72
2022-11-14T17:47:17.373Z,86474.97
2022-11-14T17:50:03.234Z,86491.63
2022-11-14T17:52:48.960Z,86463.19
2022-11-14T17:55:34.465Z,86499.84
2022-11-14T17:58:19.818Z,86445.00
2022-11-14T18:01:17.269Z,86491.47
2022-11-14T18:04:06.053Z,86481.00
2022-11-14T18:06:52.299Z,86467.16
2022-11-14T18:09:37.917Z,86489.22
2022-11-14T18:12:23.425Z,86479.53
2022-11-14T18:15:09.180Z,86488.31
2022-11-14T18:17:54.550Z,86452.31
2022-11-14T18:20:40.037Z,86464.00
2022-11-14T18:23:25.944Z,86453.06
2022-11-14T18:26:16.184Z,86461.34
2022-11-14T18:29:02.444Z,86480.00
2022-11-14T18:31:48.488Z,86480.72
2022-11-14T18:34:37.034Z,86443.31
2022-11-14T18:37:23.331Z,86482.09
2022-11-14T18:40:16.253Z,86457.84
2022-11-14T18:43:02.283Z,86478.03
2022-11-14T18:45:48.225Z,86462.84
2022-11-14T18:48:34.092Z,86465.59
2022-11-14T18:51:22.044Z,86475.28
2022-11-14T18:54:12.626Z,86455.19
2022-11-14T18:57:00.671Z,86476.72
2022-11-14T18:59:46.256Z,86472.66
2022-11-14T19:02:31.684Z,86444.81
2022-11-14T19:05:16.901Z,86473.97
2022-11-14T19:08:02.194Z,86459.97
2022-11-14T19:10:47.645Z,86464.72
2022-11-14T19:13:33.885Z,86466.00
2022-11-14T19:16:19.636Z,86473.69
2022-11-14T19:19:06.608Z,86452.81
2022-11-14T19:21:51.930Z,86481.28
2022-11-14T19:24:38.554Z,86458.31
2022-11-14T19:27:24.025Z,86443.13
2022-11-14T19:30:10.208Z,86433.38
2022-11-14T19:32:56.058Z,86425.66
2022-11-14T19:35:41.485Z,86473.44
2022-11-14T19:38:27.166Z,86472.75
2022-11-14T19:41:20.388Z,86459.56
2022-11-14T19:44:05.851Z,86452.63
2022-11-14T19:46:51.622Z,86449.81
2022-11-14T19:49:37.347Z,86468.53
2022-11-14T19:52:22.853Z,86456.84
2022-11-14T19:55:08.781Z,86423.47
2022-11-14T19:57:54.441Z,86447.16
2022-11-14T20:00:39.793Z,86479.06
2022-11-14T20:03:25.190Z,86425.63
2022-11-14T20:06:16.289Z,86444.31
2022-11-14T20:09:06.471Z,86464.41
2022-11-14T20:11:51.864Z,86460.94
2022-11-14T20:14:37.363Z,86466.59
2022-11-14T20:17:23.034Z,86470.75
2022-11-14T20:20:08.904Z,86467.22
2022-11-14T20:22:54.230Z,86465.22
2022-11-14T20:25:40.488Z,86467.84
2022-11-14T20:28:25.568Z,86463.66
2022-11-14T20:31:16.497Z,86463.59
2022-11-14T20:34:01.827Z,86445.47
2022-11-14T20:37:10.019Z,86414.28
2022-11-14T20:39:52.845Z,86353.81
2022-11-14T20:42:38.291Z,86417.53
2022-11-14T20:45:25.079Z,86435.56
2022-11-14T20:48:10.627Z,86453.59
2022-11-14T20:51:06.711Z,86436.97
2022-11-14T20:53:54.684Z,86424.69
2022-11-14T20:56:40.110Z,86437.16
2022-11-14T20:59:25.655Z,86426.00
2022-11-14T21:02:12.909Z,86439.25
2022-11-14T21:04:58.786Z,86398.31
2022-11-14T21:07:44.308Z,86438.47
2022-11-14T21:10:48.073Z,86446.72
2022-11-14T21:13:56.655Z,86383.06
2022-11-14T21:16:42.191Z,86408.63
2022-11-14T21:19:29.376Z,86438.94
2022-11-14T21:22:15.226Z,86413.31
2022-11-14T21:25:01.945Z,86425.88
2022-11-14T21:27:47.498Z,86386.41
2022-11-14T21:30:34.636Z,86392.69
2022-11-14T21:33:20.330Z,86373.09
2022-11-14T21:36:29.647Z,86418.75
2022-11-14T21:39:15.293Z,86408.44
2022-11-14T21:42:00.816Z,86383.44
2022-11-14T21:44:46.360Z,86386.31
2022-11-14T21:47:31.344Z,86411.94
2022-11-14T21:50:16.927Z,86391.03
2022-11-14T21:53:02.810Z,86388.31
2022-11-14T21:55:48.530Z,86381.34
2022-11-14T21:58:34.012Z,86411.69
2022-11-14T22:01:40.394Z,86412.97
2022-11-14T22:04:26.192Z,86414.03
2022-11-14T22:07:12.114Z,86408.66
2022-11-14T22:09:57.735Z,86347.69
2022-11-14T22:12:43.087Z,86405.19
2022-11-14T22:15:28.436Z,86396.06
2022-11-14T22:18:14.936Z,86400.09
2022-11-14T22:21:00.767Z,86391.94
2022-11-14T22:23:46.689Z,86392.63
2022-11-14T22:26:32.106Z,86346.84
2022-11-14T22:29:17.393Z,86355.19
2022-11-14T22:32:02.699Z,86368.44
2022-11-14T22:34:48.218Z,86383.09
2022-11-14T22:37:33.793Z,86342.91
2022-11-14T22:40:19.258Z,86349.94
2022-11-14T22:43:04.795Z,86351.78
2022-11-14T22:45:53.815Z,86364.94
2022-11-14T22:48:39.430Z,86376.75
2022-11-14T22:51:28.512Z,86351.69
2022-11-14T22:54:14.231Z,86324.66
2022-11-14T22:56:59.837Z,86332.28
2022-11-14T22:59:45.354Z,86329.91
2022-11-14T23:02:30.698Z,86361.94
2022-11-14T23:05:16.537Z,86358.50
2022-11-14T23:08:02.515Z,86367.41
2022-11-14T23:10:48.421Z,86354.31
2022-11-14T23:13:38.946Z,86325.97
2022-11-14T23:16:30.584Z,86342.13
2022-11-14T23:19:16.310Z,86358.00
2022-11-14T23:22:01.933Z,86353.22
2022-11-14T23:24:47.354Z,86340.69
2022-11-14T23:27:33.554Z,86346.34
2022-11-14T23:30:19.075Z,86345.03
2022-11-14T23:33:05.165Z,86347.75
2022-11-14T23:35:50.774Z,86326.97
2022-11-14T23:38:36.253Z,86336.06
2022-11-14T23:41:27.502Z,86344.94
2022-11-14T23:44:13.290Z,86306.81
2022-11-14T23:46:58.699Z,86308.97
2022-11-14T23:49:44.345Z,86345.03
2022-11-14T23:52:30.265Z,86333.97
2022-11-14T23:55:16.187Z,86282.63
2022-11-14T23:58:01.995Z,86325.59
